^^
Saratoga-Weather Station Historical Data
Daily Summary for April 14, 2021 Units:  English    Metric   Both
Daily Weekly Monthly Yearly Custom
  High: Low: Average:
Temperature: 85.6 °F 58.8 °F 72 °F
Dew Point: 67.6 °F 56.5 °F 62.4 °F
Humidity: 96% 51% 74%
Wind Speed: 8.9mph 0mph 1.2mph
Wind Gust: 11mph - -
Wind- - SW
Pressure: 30.2 in 30 in -
Precipitation: 0 in    
Historical Graphs
 
 
Tabular Data for April 14, 2021
Time Temperature Dew Point Pressure Wind Wind Speed Wind Gust Humidity Rainfall Rate (Hourly) solar
00:01 65.1 °F 60.4 °F 30.2 in Calm     85% 0 in 0 W/m2
00:06 64.9 °F 60.3 °F 30.2 in Calm     85% 0 in 0 W/m2
00:11 64.9 °F 60.6 °F 30.2 in Calm     86% 0 in 0 W/m2
00:16 64.8 °F 60.4 °F 30.2 in Calm     86% 0 in 0 W/m2
00:21 64.6 °F 60.3 °F 30.2 in Calm     86% 0 in 0 W/m2
00:26 64.6 °F 60.6 °F 30.2 in Calm     87% 0 in 0 W/m2
00:31 64.2 °F 60.3 °F 30.2 in Calm     87% 0 in 0 W/m2
00:36 64 °F 60.1 °F 30.2 in Calm     87% 0 in 0 W/m2
00:41 64 °F 60.1 °F 30.2 in Calm     87% 0 in 0 W/m2
00:46 63.9 °F 59.9 °F 30.2 in Calm     87% 0 in 0 W/m2
00:51 63.7 °F 60.1 °F 30.2 in Calm     88% 0 in 0 W/m2
00:56 63.7 °F 60.1 °F 30.2 in Calm     88% 0 in 0 W/m2
01:01 63.3 °F 59.7 °F 30.2 in Calm     88% 0 in 0 W/m2
01:06 63.3 °F 60.1 °F 30.2 in Calm     89% 0 in 0 W/m2
01:11 63.1 °F 59.9 °F 30.2 in Calm     89% 0 in 0 W/m2
01:16 63.1 °F 59.9 °F 30.2 in Calm     89% 0 in 0 W/m2
01:21 63 °F 59.7 °F 30.2 in Calm     89% 0 in 0 W/m2
01:26 63 °F 59.7 °F 30.2 in Calm     89% 0 in 0 W/m2
01:31 62.8 °F 59.7 °F 30.2 in Calm     90% 0 in 0 W/m2
01:36 62.8 °F 59.7 °F 30.2 in Calm     90% 0 in 0 W/m2
01:41 62.8 °F 59.7 °F 30.2 in Calm     90% 0 in 0 W/m2
01:46 62.8 °F 59.7 °F 30.2 in Calm     90% 0 in 0 W/m2
01:51 62.6 °F 59.5 °F 30.2 in Calm     90% 0 in 0 W/m2
01:56 62.6 °F 59.5 °F 30.2 in Calm     90% 0 in 0 W/m2
02:01 62.4 °F 59.4 °F 30.2 in Calm     90% 0 in 0 W/m2
02:06 62.4 °F 59.7 °F 30.2 in Calm     91% 0 in 0 W/m2
02:11 62.4 °F 59.7 °F 30.2 in Calm     91% 0 in 0 W/m2
02:16 62.2 °F 59.5 °F 30.2 in Calm     91% 0 in 0 W/m2
02:21 62.2 °F 59.5 °F 30.2 in Calm     91% 0 in 0 W/m2
02:26 62.2 °F 59.5 °F 30.2 in Calm     91% 0 in 0 W/m2
02:31 62.1 °F 59.4 °F 30.2 in Calm     91% 0 in 0 W/m2
02:36 61.9 °F 59.2 °F 30.2 in Calm     91% 0 in 0 W/m2
02:41 61.9 °F 59.2 °F 30.2 in Calm     91% 0 in 0 W/m2
02:46 61.7 °F 59 °F 30.2 in Calm     91% 0 in 0 W/m2
02:51 61.5 °F 59.2 °F 30.2 in Calm     92% 0 in 0 W/m2
02:56 61.5 °F 59.2 °F 30.2 in Calm     92% 0 in 0 W/m2
03:01 61.5 °F 59.2 °F 30.2 in Calm     92% 0 in 0 W/m2
03:06 61.3 °F 59 °F 30.2 in Calm     92% 0 in 0 W/m2
03:11 61.3 °F 59 °F 30.2 in Calm     92% 0 in 0 W/m2
03:16 61.3 °F 59 °F 30.2 in Calm     92% 0 in 0 W/m2
03:21 61.2 °F 58.8 °F 30.2 in Calm     92% 0 in 0 W/m2
03:26 61.2 °F 58.8 °F 30.1 in Calm     92% 0 in 0 W/m2
03:31 61 °F 58.6 °F 30.1 in Calm     92% 0 in 0 W/m2
03:36 61 °F 58.6 °F 30.1 in Calm     92% 0 in 0 W/m2
03:41 60.8 °F 58.8 °F 30.1 in Calm     93% 0 in 0 W/m2
03:46 60.6 °F 58.6 °F 30.1 in Calm     93% 0 in 0 W/m2
03:51 60.6 °F 58.6 °F 30.1 in Calm     93% 0 in 0 W/m2
03:56 60.6 °F 58.6 °F 30.1 in Calm     93% 0 in 0 W/m2
04:01 60.4 °F 58.5 °F 30.1 in Calm     93% 0 in 0 W/m2
04:06 60.4 °F 58.5 °F 30.1 in Calm     93% 0 in 0 W/m2
04:11 60.3 °F 58.3 °F 30.1 in Calm     93% 0 in 0 W/m2
04:16 60.3 °F 58.3 °F 30.1 in Calm     93% 0 in 0 W/m2
04:21 60.3 °F 58.3 °F 30.1 in Calm     93% 0 in 0 W/m2
04:26 60.1 °F 58.1 °F 30.1 in Calm     93% 0 in 0 W/m2
04:31 60.1 °F 58.1 °F 30.1 in Calm     93% 0 in 0 W/m2
04:36 59.9 °F 57.9 °F 30.1 in Calm     93% 0 in 0 W/m2
04:41 59.7 °F 57.7 °F 30.1 in Calm     93% 0 in 0 W/m2
04:46 59.7 °F 57.9 °F 30.1 in Calm     94% 0 in 0 W/m2
04:51 59.5 °F 57.7 °F 30.1 in Calm     94% 0 in 0 W/m2
04:56 59.5 °F 57.7 °F 30.1 in Calm     94% 0 in 0 W/m2
05:01 59.5 °F 57.7 °F 30.1 in Calm     94% 0 in 0 W/m2
05:06 59.5 °F 57.7 °F 30.1 in Calm     94% 0 in 0 W/m2
05:11 59.5 °F 57.7 °F 30.1 in Calm     94% 0 in 0 W/m2
05:16 59.5 °F 57.7 °F 30.1 in Calm     94% 0 in 0 W/m2
05:21 59.5 °F 57.7 °F 30.1 in Calm     94% 0 in 0 W/m2
05:26 59.4 °F 57.6 °F 30.1 in Calm     94% 0 in 0 W/m2
05:31 59.4 °F 57.6 °F 30.1 in Calm     94% 0 in 0 W/m2
05:36 59.4 °F 57.6 °F 30.1 in Calm     94% 0 in 0 W/m2
05:41 59.4 °F 57.6 °F 30.1 in Calm     94% 0 in 0 W/m2
05:46 59.2 °F 57.4 °F 30.1 in Calm     94% 0 in 0 W/m2
05:51 59.2 °F 57.4 °F 30.1 in Calm     94% 0 in 0 W/m2
05:56 59.2 °F 57.7 °F 30.1 in Calm     95% 0 in 0 W/m2
06:01 59 °F 57.6 °F 30.1 in Calm     95% 0 in 0 W/m2
06:06 59 °F 57.6 °F 30.1 in Calm     95% 0 in 0 W/m2
06:11 59 °F 57.6 °F 30.1 in Calm     95% 0 in 0 W/m2
06:16 58.8 °F 57.4 °F 30.1 in Calm     95% 0 in 0 W/m2
06:21 58.8 °F 57.4 °F 30.1 in Calm     95% 0 in 0 W/m2
06:26 58.8 °F 57.4 °F 30.1 in Calm     95% 0 in 0 W/m2
06:31 58.8 °F 57.4 °F 30.1 in Calm     95% 0 in 5 W/m2
06:36 58.8 °F 57.4 °F 30.1 in Calm     95% 0 in 7 W/m2
06:41 59 °F 57.6 °F 30.1 in Calm     95% 0 in 9 W/m2
06:46 59.2 °F 57.7 °F 30.1 in Calm     95% 0 in 12 W/m2
06:51 59.2 °F 57.7 °F 30.1 in Calm     95% 0 in 14 W/m2
06:56 59.4 °F 57.9 °F 30.1 in Calm     95% 0 in 16 W/m2
07:01 59.4 °F 57.9 °F 30.1 in Calm     95% 0 in 18 W/m2
07:06 59.4 °F 57.9 °F 30.1 in Calm     95% 0 in 19 W/m2
07:11 59.4 °F 57.9 °F 30.1 in Calm     95% 0 in 21 W/m2
07:16 59.5 °F 58.1 °F 30.1 in Calm     95% 0 in 23 W/m2
07:21 59.5 °F 58.1 °F 30.1 in Calm     95% 0 in 25 W/m2
07:26 59.5 °F 58.1 °F 30.1 in Calm     95% 0 in 26 W/m2
07:31 59.7 °F 58.6 °F 30.1 in Calm     96% 0 in 26 W/m2
07:36 59.7 °F 58.6 °F 30.1 in Calm     96% 0 in 28 W/m2
07:41 60.1 °F 59 °F 30.1 in Calm     96% 0 in 30 W/m2
07:47 60.1 °F 59 °F 30.1 in Calm     96% 0 in 30 W/m2
07:52 60.3 °F 59.2 °F 30.1 in Calm     96% 0 in 33 W/m2
07:57 60.4 °F 59.4 °F 30.1 in Calm     96% 0 in 35 W/m2
08:02 60.8 °F 59.7 °F 30.1 in Calm     96% 0 in 35 W/m2
08:07 61.2 °F 60.1 °F 30.1 in Calm     96% 0 in 37 W/m2
08:12 61.5 °F 60.4 °F 30.1 in Calm     96% 0 in 39 W/m2
08:17 62.1 °F 61 °F 30.1 in Calm     96% 0 in 40 W/m2
08:22 62.6 °F 61.2 °F 30.1 in Calm     95% 0 in 40 W/m2
08:27 63.5 °F 61.7 °F 30.1 in Calm     94% 0 in 42 W/m2
08:32 64.6 °F 62.4 °F 30.1 in Calm     93% 0 in 42 W/m2
08:37 65.5 °F 62.4 °F 30.1 in Calm     90% 0 in 62 W/m2
08:42 65.8 °F 62.2 °F 30.1 in Calm     88% 0 in 167 W/m2
08:47 66.6 °F 62.2 °F 30.1 in Calm     86% 0 in 250 W/m2
08:52 67.3 °F 62.6 °F 30.1 in Calm     85% 0 in 278 W/m2
08:57 67.6 °F 62.6 °F 30.1 in NE 0.9 mph 1 mph 84% 0 in 288 W/m2
09:02 67.6 °F 62.2 °F 30.1 in NE 2 mph 2 mph 83% 0 in 306 W/m2
09:07 67.5 °F 62.1 °F 30.1 in ENE 0.9 mph 2 mph 83% 0 in 318 W/m2
09:12 67.6 °F 62.2 °F 30.1 in NE 2 mph 3 mph 83% 0 in 332 W/m2
09:17 67.6 °F 61.9 °F 30.1 in ESE 0.9 mph 2 mph 82% 0 in 350 W/m2
09:22 67.6 °F 61.9 °F 30.1 in NE 2 mph 3 mph 82% 0 in 364 W/m2
09:27 67.6 °F 62.6 °F 30.1 in East 0.9 mph 2 mph 84% 0 in 378 W/m2
09:32 68 °F 62.6 °F 30.1 in Calm   1 mph 83% 0 in 396 W/m2
09:37 68.4 °F 62.6 °F 30.1 in East 0.9 mph 2 mph 82% 0 in 62 W/m2
09:42 68.9 °F 63.1 °F 30.1 in ENE 0.9 mph 2 mph 82% 0 in 79 W/m2
09:47 69.4 °F 63 °F 30.1 in ENE 2 mph 3 mph 80% 0 in 431 W/m2
09:52 69.8 °F 63 °F 30.1 in East 2.9 mph 3 mph 79% 0 in 448 W/m2
09:57 70.3 °F 63.1 °F 30.1 in East 0.9 mph 2 mph 78% 0 in 462 W/m2
10:02 70.9 °F 63.3 °F 30.1 in East 0.9 mph 2 mph 77% 0 in 476 W/m2
10:07 71.4 °F 63.5 °F 30.1 in East 2 mph 3 mph 76% 0 in 490 W/m2
10:12 72 °F 63.7 °F 30.1 in Calm   1 mph 75% 0 in 503 W/m2
10:17 72.3 °F 64.4 °F 30.1 in East 0.9 mph 2 mph 76% 0 in 517 W/m2
10:22 73 °F 64.6 °F 30.1 in Calm   3 mph 75% 0 in 527 W/m2
10:27 73.2 °F 64.4 °F 30.1 in ENE 0.9 mph 3 mph 74% 0 in 540 W/m2
10:32 73.8 °F 64.6 °F 30.1 in East 0.9 mph 2 mph 73% 0 in 550 W/m2
10:37 74.3 °F 64.8 °F 30.1 in Calm   2 mph 72% 0 in 559 W/m2
10:42 74.8 °F 65.7 °F 30.1 in Calm   1 mph 73% 0 in 571 W/m2
10:47 75 °F 64.6 °F 30.1 in NNE 0.9 mph 2 mph 70% 0 in 584 W/m2
10:52 75.2 °F 64.8 °F 30.1 in ENE 2 mph 2 mph 70% 0 in 594 W/m2
10:57 75.4 °F 64.6 °F 30.1 in NE 2 mph 4 mph 69% 0 in 605 W/m2
11:02 75.6 °F 64.8 °F 30.1 in Calm   2 mph 69% 0 in 621 W/m2
11:07 75.9 °F 64.6 °F 30.1 in East 2 mph 3 mph 68% 0 in 585 W/m2
11:12 76.6 °F 65.3 °F 30.1 in NE 0.9 mph 3 mph 68% 0 in 605 W/m2
11:17 77.2 °F 64.9 °F 30.1 in SE 2 mph 4 mph 66% 0 in 643 W/m2
11:22 77.5 °F 65.7 °F 30.1 in East 2 mph 4 mph 67% 0 in 654 W/m2
11:27 78.1 °F 65.3 °F 30.1 in NNE 0.9 mph 2 mph 65% 0 in 664 W/m2
11:32 78.4 °F 65.7 °F 30.1 in NNE 0.9 mph 4 mph 65% 0 in 671 W/m2
11:37 78.6 °F 65.5 °F 30.1 in East 0.9 mph 3 mph 64% 0 in 682 W/m2
11:42 79 °F 65.3 °F 30.1 in WNW 2 mph 3 mph 63% 0 in 694 W/m2
11:47 79 °F 66.6 °F 30.1 in Calm   2 mph 66% 0 in 703 W/m2
11:52 79.2 °F 66.7 °F 30.1 in WSW 2.9 mph 3 mph 66% 0 in 715 W/m2
11:57 79.2 °F 65.5 °F 30.1 in NNE 4 mph 4 mph 63% 0 in 722 W/m2
12:02 79.2 °F 65.8 °F 30.1 in ESE 0.9 mph 4 mph 64% 0 in 731 W/m2
12:07 79.3 °F 66 °F 30.1 in West 0.9 mph 3 mph 64% 0 in 731 W/m2
12:12 79.3 °F 66 °F 30.1 in NNE 2 mph 4 mph 64% 0 in 758 W/m2
12:17 79.3 °F 66 °F 30.1 in ENE 2 mph 2 mph 64% 0 in 791 W/m2
12:22 79.9 °F 66.2 °F 30.1 in NW 2 mph 3 mph 63% 0 in 844 W/m2
12:27 80.1 °F 66.4 °F 30.1 in ENE 2 mph 5 mph 63% 0 in 802 W/m2
12:32 80.6 °F 66.9 °F 30.1 in SE 0.9 mph 4 mph 63% 0 in 798 W/m2
12:37 81.3 °F 66.6 °F 30.1 in NW 0.9 mph 3 mph 61% 0 in 846 W/m2
12:42 81.9 °F 67.6 °F 30.1 in North 0.9 mph 1 mph 62% 0 in 879 W/m2
12:47 82 °F 66.7 °F 30.1 in ENE 2.9 mph 4 mph 60% 0 in 826 W/m2
12:52 82 °F 66.7 °F 30.1 in NE 0.9 mph 6 mph 60% 0 in 823 W/m2
12:57 82 °F 66.7 °F 30.1 in ENE 2 mph 4 mph 60% 0 in 877 W/m2
13:02 82 °F 66.7 °F 30.1 in Calm   3 mph 60% 0 in 860 W/m2
13:07 82.4 °F 67.1 °F 30.1 in ENE 0.9 mph 2 mph 60% 0 in 930 W/m2
13:12 82.4 °F 66.6 °F 30.1 in WNW 0.9 mph 4 mph 59% 0 in 886 W/m2
13:17 82.4 °F 67.1 °F 30.1 in WSW 4 mph 9 mph 60% 0 in 893 W/m2
13:22 82.4 °F 66.2 °F 30.1 in NNW 0.9 mph 4 mph 58% 0 in 914 W/m2
13:27 82.6 °F 65.8 °F 30.1 in WSW 4.9 mph 7 mph 57% 0 in 909 W/m2
13:32 82.8 °F 66 °F 30.1 in NNW 0.9 mph 4 mph 57% 0 in 930 W/m2
13:37 83.1 °F 66.7 °F 30.1 in WSW 2 mph 3 mph 58% 0 in 918 W/m2
13:42 83.1 °F 66.4 °F 30.1 in WNW 6 mph 8 mph 57% 0 in 911 W/m2
13:47 83.1 °F 65.8 °F 30.1 in NNW 0.9 mph 4 mph 56% 0 in 889 W/m2
13:52 83.1 °F 66.4 °F 30.1 in NW 4 mph 5 mph 57% 0 in 879 W/m2
13:57 83.3 °F 66.6 °F 30.1 in West 2.9 mph 8 mph 57% 0 in 816 W/m2
14:02 82.8 °F 66 °F 30.1 in WNW 2 mph 7 mph 57% 0 in 209 W/m2
14:07 82.2 °F 66.4 °F 30.1 in NW 2 mph 7 mph 59% 0 in 840 W/m2
14:12 81.9 °F 67.1 °F 30.1 in WSW 4 mph 4 mph 61% 0 in 856 W/m2
14:17 82 °F 65.8 °F 30.1 in NW 2.9 mph 7 mph 58% 0 in 846 W/m2
14:22 82.8 °F 66.9 °F 30.1 in NNE 0.9 mph 2 mph 59% 0 in 860 W/m2
14:27 83.5 °F 66.6 °F 30.1 in West 2.9 mph 4 mph 57% 0 in 870 W/m2
14:32 83.5 °F 66.2 °F 30.1 in WNW 6.9 mph 7 mph 56% 0 in 895 W/m2
14:37 82.9 °F 66.2 °F 30.1 in WNW 2.9 mph 6 mph 57% 0 in 178 W/m2
14:42 82.6 °F 66.7 °F 30.1 in West 0.9 mph 4 mph 59% 0 in 290 W/m2
14:47 82.2 °F 64.9 °F 30.1 in NW 0.9 mph 4 mph 56% 0 in 176 W/m2
14:52 82.2 °F 66.4 °F 30.1 in West 6 mph 6 mph 59% 0 in 888 W/m2
14:57 82.6 °F 66.4 °F 30.1 in NW 2.9 mph 8 mph 58% 0 in 838 W/m2
15:02 82.9 °F 67.6 °F 30.1 in West 8.9 mph 10 mph 60% 0 in 824 W/m2
15:07 83.5 °F 65.7 °F 30.1 in WNW 4 mph 7 mph 55% 0 in 816 W/m2
15:12 83.7 °F 65.8 °F 30.1 in West 2.9 mph 4 mph 55% 0 in 831 W/m2
15:17 83.8 °F 66 °F 30.1 in SW 4 mph 7 mph 55% 0 in 826 W/m2
15:22 84.2 °F 66.7 °F 30.1 in Calm   4 mph 56% 0 in 824 W/m2
15:27 84.6 °F 66.6 °F 30.1 in West 6 mph 9 mph 55% 0 in 817 W/m2
15:32 84.6 °F 65.5 °F 30.1 in WNW 4 mph 5 mph 53% 0 in 782 W/m2
15:37 84.6 °F 66.6 °F 30.1 in WNW 4 mph 7 mph 55% 0 in 777 W/m2
15:42 84.7 °F 66.2 °F 30.1 in NNW 2 mph 4 mph 54% 0 in 765 W/m2
15:47 84.7 °F 66.2 °F 30.1 in NW 4 mph 5 mph 54% 0 in 772 W/m2
15:52 84.9 °F 65.8 °F 30.1 in West 2 mph 2 mph 53% 0 in 817 W/m2
15:57 85.3 °F 66.7 °F 30.1 in NW 0.9 mph 6 mph 54% 0 in 763 W/m2
16:02 85.6 °F 67.6 °F 30.1 in WNW 2.9 mph 5 mph 55% 0 in 747 W/m2
16:07 85.6 °F 65.5 °F 30.1 in North 2 mph 6 mph 51% 0 in 715 W/m2
16:12 85.6 °F 66.6 °F 30.1 in NW 4 mph 7 mph 53% 0 in 710 W/m2
16:17 85.5 °F 66.9 °F 30.1 in WSW 2 mph 7 mph 54% 0 in 691 W/m2
16:22 85.3 °F 66.2 °F 30.1 in NW 0.9 mph 5 mph 53% 0 in 691 W/m2
16:27 85.3 °F 66.7 °F 30.1 in NNW 2.9 mph 11 mph 54% 0 in 666 W/m2
16:32 84.9 °F 66.9 °F 30.1 in West 4 mph 6 mph 55% 0 in 645 W/m2
16:37 84.7 °F 66.2 °F 30.1 in West 6 mph 7 mph 54% 0 in 654 W/m2
16:42 84.4 °F 65.8 °F 30.1 in West 6.9 mph 10 mph 54% 0 in 682 W/m2
16:47 84.4 °F 66.4 °F 30.1 in West 4 mph 4 mph 55% 0 in 696 W/m2
16:52 84.7 °F 66.2 °F 30.1 in WNW 2 mph 5 mph 54% 0 in 659 W/m2
16:57 85.1 °F 66 °F 30.1 in WNW 4 mph 9 mph 53% 0 in 601 W/m2
17:02 84.9 °F 65.8 °F 30.1 in WNW 2.9 mph 10 mph 53% 0 in 584 W/m2
17:07 84.9 °F 65.8 °F 30.1 in NW 2.9 mph 9 mph 53% 0 in 596 W/m2
17:12 84.6 °F 66 °F 30.1 in WNW 2.9 mph 7 mph 54% 0 in 563 W/m2
17:17 84.7 °F 66.7 °F 30.1 in West 4 mph 9 mph 55% 0 in 552 W/m2
17:22 84.6 °F 66 °F 30.1 in North 2.9 mph 10 mph 54% 0 in 547 W/m2
17:27 84.6 °F 66 °F 30.1 in West 2.9 mph 7 mph 54% 0 in 526 W/m2
17:32 84.6 °F 67.1 °F 30 in SW 4.9 mph 6 mph 56% 0 in 522 W/m2
17:37 84.4 °F 65.8 °F 30.1 in NW 2 mph 9 mph 54% 0 in 485 W/m2
17:42 84.4 °F 66.9 °F 30.1 in WNW 2 mph 7 mph 56% 0 in 464 W/m2
17:47 84.4 °F 65.8 °F 30 in NW 2 mph 8 mph 54% 0 in 466 W/m2
17:52 84.7 °F 66.2 °F 30 in WNW 4 mph 7 mph 54% 0 in 454 W/m2
17:57 84.6 °F 66 °F 30 in WNW 2.9 mph 7 mph 54% 0 in 436 W/m2
18:02 84.4 °F 65.8 °F 30 in West 2 mph 2 mph 54% 0 in 420 W/m2
18:07 84.6 °F 65.5 °F 30 in NNW 2.9 mph 4 mph 53% 0 in 403 W/m2
18:12 84.7 °F 65.7 °F 30 in West 6 mph 6 mph 53% 0 in 385 W/m2
18:17 84.7 °F 66.7 °F 30 in West 2.9 mph 5 mph 55% 0 in 371 W/m2
18:22 84.6 °F 66 °F 30 in West 2.9 mph 7 mph 54% 0 in 357 W/m2
18:27 84.4 °F 66.4 °F 30 in West 2.9 mph 8 mph 55% 0 in 346 W/m2
18:32 84.2 °F 65.7 °F 30 in WNW 4 mph 4 mph 54% 0 in 334 W/m2
18:37 84 °F 65.7 °F 30 in West 0.9 mph 8 mph 54% 0 in 322 W/m2
18:42 83.8 °F 65.5 °F 30 in NNW 2.9 mph 7 mph 54% 0 in 304 W/m2
18:47 83.8 °F 66 °F 30 in West 4 mph 4 mph 55% 0 in 288 W/m2
18:52 83.8 °F 66 °F 30 in West 2.9 mph 7 mph 55% 0 in 274 W/m2
18:57 83.5 °F 66.6 °F 30 in West 2 mph 4 mph 57% 0 in 257 W/m2
19:02 83.3 °F 66.6 °F 30 in WSW 2.9 mph 7 mph 57% 0 in 230 W/m2
19:07 82.9 °F 66.6 °F 30 in WSW 4 mph 6 mph 58% 0 in 211 W/m2
19:12 82.6 °F 66.4 °F 30 in West 2.9 mph 5 mph 58% 0 in 188 W/m2
19:17 82.2 °F 66.4 °F 30 in West 2 mph 3 mph 59% 0 in 171 W/m2
19:22 82 °F 65.8 °F 30 in West 2 mph 5 mph 58% 0 in 155 W/m2
19:27 81.9 °F 66.2 °F 30 in West 2.9 mph 5 mph 59% 0 in 139 W/m2
19:32 81.7 °F 66.4 °F 30 in West 2 mph 3 mph 60% 0 in 121 W/m2
19:37 81.5 °F 65.8 °F 30 in WNW 2 mph 6 mph 59% 0 in 114 W/m2
19:42 81.3 °F 65.7 °F 30 in West 2 mph 5 mph 59% 0 in 111 W/m2
19:47 81.1 °F 66 °F 30 in WNW 2.9 mph 5 mph 60% 0 in 109 W/m2
19:52 81 °F 65.8 °F 30 in West 2 mph 3 mph 60% 0 in 104 W/m2
19:58 80.8 °F 66 °F 30 in WSW 2 mph 5 mph 61% 0 in 93 W/m2
20:03 80.6 °F 65.5 °F 30 in West 2 mph 6 mph 60% 0 in 81 W/m2
20:08 80.2 °F 65.5 °F 30 in WSW 4.9 mph 5 mph 61% 0 in 67 W/m2
20:13 79.9 °F 65.7 °F 30 in WNW 2 mph 4 mph 62% 0 in 42 W/m2
20:18 79.2 °F 65.5 °F 30 in WSW 0.9 mph 5 mph 63% 0 in 25 W/m2
20:23 78.6 °F 65.5 °F 30 in West 0.9 mph 4 mph 64% 0 in 21 W/m2
20:28 78.1 °F 65.3 °F 30 in WSW 2 mph 5 mph 65% 0 in 19 W/m2
20:33 77.5 °F 65.3 °F 30 in WSW 2 mph 3 mph 66% 0 in 16 W/m2
20:38 77.2 °F 64.9 °F 30 in West 2 mph 3 mph 66% 0 in 12 W/m2
20:43 76.8 °F 64.9 °F 30 in West 0.9 mph 3 mph 67% 0 in 11 W/m2
20:48 76.5 °F 64.8 °F 30 in WSW 2 mph 3 mph 67% 0 in 7 W/m2
20:53 76.1 °F 63.9 °F 30 in WSW 0.9 mph 4 mph 66% 0 in 5 W/m2
20:58 75.7 °F 64 °F 30 in WSW 2.9 mph 3 mph 67% 0 in 0 W/m2
21:03 75.4 °F 63.7 °F 30 in West 2 mph 4 mph 67% 0 in 0 W/m2
21:08 75 °F 63 °F 30 in WNW 2 mph 3 mph 66% 0 in 0 W/m2
21:13 74.8 °F 62.8 °F 30 in West 4 mph 6 mph 66% 0 in 0 W/m2
21:18 74.7 °F 62.6 °F 30 in West 2.9 mph 4 mph 66% 0 in 0 W/m2
21:23 74.5 °F 62.4 °F 30 in West 2 mph 3 mph 66% 0 in 0 W/m2
21:28 74.1 °F 61.5 °F 30 in West 0.9 mph 3 mph 65% 0 in 0 W/m2
21:33 73.9 °F 61.3 °F 30 in Calm   2 mph 65% 0 in 0 W/m2
21:38 73.8 °F 61.7 °F 30 in WSW 0.9 mph 2 mph 66% 0 in 0 W/m2
21:43 73.6 °F 61.2 °F 30 in WSW 0.9 mph 1 mph 65% 0 in 0 W/m2
21:48 73 °F 61.5 °F 30 in WSW 0.9 mph 2 mph 67% 0 in 0 W/m2
21:53 72.7 °F 61.5 °F 30 in Calm   1 mph 68% 0 in 0 W/m2
21:58 72 °F 60.8 °F 30 in WSW 0.9 mph 1 mph 68% 0 in 0 W/m2
22:03 71.6 °F 60.8 °F 30 in Calm   1 mph 69% 0 in 0 W/m2
22:08 71.2 °F 61 °F 30 in WSW 0.9 mph 1 mph 70% 0 in 0 W/m2
22:13 70.7 °F 60.8 °F 30 in Calm   1 mph 71% 0 in 0 W/m2
22:18 70.3 °F 60.4 °F 30 in Calm     71% 0 in 0 W/m2
22:23 70.2 °F 60.3 °F 30 in Calm     71% 0 in 0 W/m2
22:28 69.6 °F 59.7 °F 30 in Calm     71% 0 in 0 W/m2
22:33 69.4 °F 59.5 °F 30 in Calm     71% 0 in 0 W/m2
22:38 69.1 °F 59.4 °F 30 in Calm     71% 0 in 0 W/m2
22:43 68.7 °F 59 °F 30 in Calm     71% 0 in 0 W/m2
22:48 68.5 °F 58.3 °F 30 in Calm     70% 0 in 0 W/m2
22:53 68.2 °F 58.1 °F 30 in Calm     70% 0 in 0 W/m2
22:58 67.8 °F 57.2 °F 30 in Calm     69% 0 in 0 W/m2
23:03 67.5 °F 57.4 °F 30 in Calm     70% 0 in 0 W/m2
23:08 67.1 °F 57 °F 30 in Calm     70% 0 in 0 W/m2
23:13 66.7 °F 56.7 °F 30 in Calm     70% 0 in 0 W/m2
23:18 66.6 °F 56.5 °F 30 in Calm     70% 0 in 0 W/m2
23:23 66.4 °F 56.7 °F 30 in Calm     71% 0 in 0 W/m2
23:28 66 °F 56.7 °F 30 in Calm     72% 0 in 0 W/m2
23:33 65.8 °F 56.5 °F 30 in Calm   1 mph 72% 0 in 0 W/m2
23:38 65.8 °F 57 °F 30 in Calm   2 mph 73% 0 in 0 W/m2
23:43 65.7 °F 57.2 °F 30 in SW 2 mph 3 mph 74% 0 in 0 W/m2
23:48 65.8 °F 57.4 °F 30 in Calm   2 mph 74% 0 in 0 W/m2
23:53 65.7 °F 57.6 °F 30 in Calm   3 mph 75% 0 in 0 W/m2
23:58 65.5 °F 57.4 °F 30 in Calm   1 mph 75% 0 in 0 W/m2
Juneau County Weather
Compliments of Weather Underground - 4 mb